Wednesday, January 17, 2018, 4:38 PM EST
Back to Local

KLEB, Lebanon Municipal Airport

Location: Lebanon, NH, United States Lat: 43.633
Local Time: 4:38 PM EST (21:38 GMT) Lon: -72.3
Time Zone: US/Eastern Elev: 597 ft

Show me the last for .
Show Decoded

2018-01-17 16:13 METAR KLEB 172113Z 00000KT 3/4SM -SN BR VV014 M02/M03 A3012 RMK AO2 P0001
                 T10171028 =
2018-01-17 15:53 METAR KLEB 172053Z 00000KT 3/4SM -SN BR VV016 M02/M03 A3012 RMK AO2 SLP209 P0001
                 60004 T10171028 56020 =
2018-01-17 14:53 METAR KLEB 171953Z 00000KT 1SM -SN BR BKN022 OVC028 M02/M03 A3013 RMK AO2 SLP213
                 P0001 T10171033 =
2018-01-17 13:53 METAR KLEB 171853Z 36003KT 1 1/4SM -SN BR BKN022 OVC030 M02/M03 A3014 RMK AO2
                 SLP218 P0002 T10171033 =
2018-01-17 12:56 METAR KLEB 171756Z COR 35003KT 1 1/4SM -SN BR FEW005 OVC016 M02/M03 A3018 RMK
                 AO2 P0000 T10171033 =
2018-01-17 12:53 METAR KLEB 171753Z 35003KT 1 1/4SM -SN BR OVC016 M02/M03 A3018 RMK AO2 SLP230
                 P0002 60002 T10171033 11017 21039 58033 =
2018-01-17 12:43 METAR KLEB 171743Z 35004KT 3/4SM -SN BR VV015 M02/M04 A3018 RMK AO2 P0002
                 T10221039 =
2018-01-17 12:21 METAR KLEB 171721Z 32003KT 3/4SM -SN BR FEW004 BKN014 OVC028 M02/M04 A3020 RMK
                 AO2 P0001 T10221039 =
2018-01-17 12:03 METAR KLEB 171703Z 00000KT 1 3/4SM -SN BR SCT006 BKN012 OVC028 M02/M04 A3021 RMK
                 AO2 P0000 T10221039 =
2018-01-17 11:53 METAR KLEB 171653Z 34003KT 3SM -SN BR SCT006 OVC012 M02/M04 A3022 RMK AO2 SNB22
                 SLP244 P0000 T10171039 =
2018-01-17 11:42 METAR KLEB 171642Z 35003KT 4SM -SN BR FEW006 BKN012 OVC030 M02/M04 A3023 RMK AO2
                 SNB22 P0000 T10171039 =
2018-01-17 11:35 METAR KLEB 171635Z 00000KT 4SM -SN BR FEW006 SCT012 OVC030 M02/M04 A3023 RMK AO2
                 SNB22 P0000 T10221039 =
2018-01-17 10:53 METAR KLEB 171553Z 35006KT 5SM BR SCT029 OVC039 M03/M04 A3026 RMK AO2 SLP257
                 T10281044 =
2018-01-17 10:34 METAR KLEB 171534Z 34003KT 6SM BR BKN029 OVC041 M03/M04 A3026 RMK AO2 T10281044
                 =
2018-01-17 09:53 METAR KLEB 171453Z 35004KT 7SM OVC048 M03/M04 A3027 RMK AO2 SNE09 SLP263 P0000
                 60000 T10281044 56011 =
2018-01-17 08:53 METAR KLEB 171353Z 35003KT 4SM -SN BR SCT026 BKN044 OVC065 M03/M05 A3028 RMK AO2
                 SNB46 SLP265 P0000 T10331050 =
2018-01-17 07:53 METAR KLEB 171253Z 34003KT 5SM BR OVC050 M03/M05 A3029 RMK AO2 SNE52 SLP268
                 P0000 T10331050 =
2018-01-17 06:53 METAR KLEB 171153Z 33003KT 3SM -SN BR OVC048 M04/M04 A3031 RMK AO2 SLP275 P0000
                 60007 70013 T10391044 11033 21039 58006 =
2018-01-17 06:36 METAR KLEB 171136Z 33004KT 3SM -SN BR OVC050 M04/M04 A3032 RMK AO2 P0000
                 T10391044 =
2018-01-17 06:17 METAR KLEB 171117Z 32003KT 2 1/2SM -SN BR SCT030 OVC055 M04/M04 A3032 RMK AO2
                 P0000 T10391044 =
2018-01-17 06:10 METAR KLEB 171110Z 33003KT 2 1/2SM -SN BR BKN028 OVC055 M03/M04 A3031 RMK AO2
                 P0000 T10331044 =
2018-01-17 05:53 METAR KLEB 171053Z 32003KT 1 3/4SM -SN BR OVC022 M03/M04 A3031 RMK AO2 SLP276
                 P0002 T10331044 =
2018-01-17 04:53 METAR KLEB 170953Z AUTO 33003KT 1 3/4SM -SN BR OVC019 M03/M04 A3032 RMK AO2
                 SLP278 P0002 T10331044 =
2018-01-17 04:10 METAR KLEB 170910Z AUTO 35003KT 1 1/2SM -SN BR OVC019 M03/M04 A3032 RMK AO2
                 P0001 T10331044 =
2018-01-17 03:53 METAR KLEB 170853Z AUTO 34003KT 2SM -SN BR OVC023 M03/M04 A3032 RMK AO2 SLP280
                 P0001 60003 T10331044 58008 =
2018-01-17 03:30 METAR KLEB 170830Z AUTO 00000KT 1 3/4SM -SN BR OVC024 M03/M04 A3033 RMK AO2
                 P0001 T10331044 =
2018-01-17 02:53 METAR KLEB 170753Z AUTO 00000KT 2SM -SN BR OVC028 M03/M04 A3034 RMK AO2 SLP284
                 P0000 T10331044 =
2018-01-17 02:45 METAR KLEB 170745Z AUTO 00000KT 2SM -SN BR OVC027 M03/M04 A3033 RMK AO2 P0000
                 T10331044 =
2018-01-17 02:29 METAR KLEB 170729Z AUTO 32003KT 1 3/4SM -SN BR OVC027 M03/M04 A3034 RMK AO2
                 P0000 T10331044 =
2018-01-17 02:04 METAR KLEB 170704Z AUTO 33003KT 2SM -SN BR OVC025 M03/M04 A3034 RMK AO2 P0000
                 T10331044 =
2018-01-17 01:53 METAR KLEB 170653Z AUTO 00000KT 1 3/4SM -SN BR OVC023 M03/M04 A3034 RMK AO2
                 SLP285 P0002 T10331044 =
2018-01-17 01:20 METAR KLEB 170620Z AUTO 03003KT 1 3/4SM -SN BR OVC024 M03/M04 A3034 RMK AO2
                 P0001 T10331044 =
2018-01-17 00:53 METAR KLEB 170553Z AUTO 36003KT 2SM -SN BR OVC024 M03/M04 A3035 RMK AO2 SLP288
                 P0001 60006 T10331039 11028 21033 55011 =
2018-01-17 00:49 METAR KLEB 170549Z AUTO 36003KT 2SM -SN BR OVC023 M03/M04 A3035 RMK AO2 P0001 =
2018-01-17 00:41 METAR KLEB 170541Z AUTO 36003KT 1 3/4SM -SN BR OVC023 M03/M04 A3035 RMK AO2
                 P0001 T10331044 =
2018-01-17 00:29 METAR KLEB 170529Z AUTO 34003KT 2SM -SN BR OVC023 M03/M04 A3035 RMK AO2 P0001
                 T10331044 =
2018-01-16 23:53 METAR KLEB 170453Z AUTO 00000KT 1 1/2SM -SN BR OVC015 M03/M04 A3036 RMK AO2
                 SLP294 P0002 T10281044 410171094 =
2018-01-16 22:53 METAR KLEB 170353Z AUTO 00000KT 1 3/4SM -SN BR OVC023 M03/M04 A3038 RMK AO2
                 SLP300 P0002 T10281039 =
2018-01-16 22:03 METAR KLEB 170303Z AUTO 00000KT 2SM -SN BR OVC026 M03/M04 A3039 RMK AO2 P0001
                 T10281039 =
2018-01-16 21:53 METAR KLEB 170253Z 00000KT 1 3/4SM -SN BR OVC024 M03/M04 A3039 RMK AO2 SLP303
                 P0001 60001 T10281039 57001 =
2018-01-16 21:48 METAR KLEB 170248Z 00000KT 1 3/4SM -SN BR OVC024 M03/M04 A3038 RMK AO2 P0001 =
2018-01-16 21:40 METAR KLEB 170240Z 00000KT 2SM -SN BR OVC026 M03/M04 A3038 RMK AO2 P0001
                 T10281044 =
2018-01-16 21:05 METAR KLEB 170205Z 00000KT 2 1/2SM -SN BR OVC040 M03/M04 A3038 RMK AO2 P0001
                 T10281039 =
2018-01-16 20:53 METAR KLEB 170153Z 00000KT 3SM -SN BR OVC044 M03/M04 A3039 RMK AO2 SLP304 P0000
                 T10281044 =
2018-01-16 19:53 METAR KLEB 170053Z 00000KT 3SM -SN BR OVC038 M03/M04 A3039 RMK AO2 SLP304 P0000
                 T10281044 =
2018-01-16 18:53 METAR KLEB 162353Z 00000KT 4SM -SN BR OVC060 M03/M04 A3040 RMK AO2 SLP306 P0000
                 60000 T10281044 11017 21028 51002 =
2018-01-16 17:53 METAR KLEB 162253Z 00000KT 4SM -SN BR BKN046 OVC065 M03/M04 A3040 RMK AO2 SLP306
                 P0000 T10281044 =
2018-01-16 16:53 METAR KLEB 162153Z 21004KT 5SM -SN OVC050 M02/M06 A3039 RMK AO2 SNB53 SLP305
                 P0000 T10221056 =

Support USWX by starting your Amazon purchase here.